createdAt,value
2022-12-03T00:00:48.681Z,1009.05
2022-12-03T00:03:21.632Z,1009.05
2022-12-03T00:05:54.694Z,1009.07
2022-12-03T00:08:27.716Z,1009.05
2022-12-03T00:11:00.479Z,1009.05
2022-12-03T00:13:33.698Z,1009.05
2022-12-03T00:16:06.737Z,1009.04
2022-12-03T00:18:39.728Z,1009.03
2022-12-03T00:21:12.659Z,1009.01
2022-12-03T00:23:45.649Z,1009.01
2022-12-03T00:26:18.659Z,1009.01
2022-12-03T00:28:51.742Z,1009.00
2022-12-03T00:31:24.785Z,1009.01
2022-12-03T00:33:57.653Z,1009.00
2022-12-03T00:36:30.638Z,1008.98
2022-12-03T00:39:03.764Z,1008.98
2022-12-03T00:41:39.687Z,1008.96
2022-12-03T00:44:12.655Z,1008.94
2022-12-03T00:46:45.854Z,1008.94
2022-12-03T00:49:18.845Z,1008.93
2022-12-03T00:51:52.757Z,1008.92
2022-12-03T00:54:31.624Z,1008.91
2022-12-03T00:57:12.759Z,1008.89
2022-12-03T00:59:45.784Z,1008.88
2022-12-03T01:02:18.859Z,1008.88
2022-12-03T01:04:52.170Z,1008.87
2022-12-03T01:07:24.810Z,1008.87
2022-12-03T01:09:57.781Z,1008.88
2022-12-03T01:12:30.447Z,1008.90
2022-12-03T01:15:03.416Z,1008.90
2022-12-03T01:17:36.812Z,1008.91
2022-12-03T01:20:09.584Z,1008.92
2022-12-03T01:22:42.816Z,1008.92
2022-12-03T01:25:15.800Z,1008.93
2022-12-03T01:27:48.853Z,1008.94
2022-12-03T01:30:21.805Z,1008.96
2022-12-03T01:32:54.885Z,1008.98
2022-12-03T01:35:27.801Z,1009.00
2022-12-03T01:38:00.753Z,1009.01
2022-12-03T01:40:33.672Z,1009.02
2022-12-03T01:43:06.753Z,1009.02
2022-12-03T01:45:39.816Z,1009.02
2022-12-03T01:48:12.765Z,1009.01
2022-12-03T01:50:45.813Z,1009.03
2022-12-03T01:53:18.810Z,1009.04
2022-12-03T01:55:51.782Z,1009.04
2022-12-03T01:58:24.832Z,1009.05
2022-12-03T02:00:57.890Z,1009.05
2022-12-03T02:03:30.825Z,1009.07
2022-12-03T02:06:03.907Z,1009.07
2022-12-03T02:08:36.914Z,1009.09
2022-12-03T02:11:09.843Z,1009.11
2022-12-03T02:13:42.946Z,1009.11
2022-12-03T02:16:15.984Z,1009.12
2022-12-03T02:18:48.882Z,1009.13
2022-12-03T02:21:27.860Z,1009.13
2022-12-03T02:24:00.933Z,1009.14
2022-12-03T02:26:33.900Z,1009.14
2022-12-03T02:29:06.886Z,1009.14
2022-12-03T02:31:43.779Z,1009.15
2022-12-03T02:34:16.862Z,1009.16
2022-12-03T02:36:49.887Z,1009.16
2022-12-03T02:39:22.962Z,1009.16
2022-12-03T02:41:58.907Z,1009.15
2022-12-03T02:44:31.952Z,1009.13
2022-12-03T02:47:05.048Z,1009.12
2022-12-03T02:49:37.906Z,1009.12
2022-12-03T02:52:10.893Z,1009.11
2022-12-03T02:54:44.148Z,1009.10
2022-12-03T02:57:17.608Z,1009.11
2022-12-03T02:59:50.988Z,1009.10
2022-12-03T03:02:23.948Z,1009.09
2022-12-03T03:04:56.963Z,1009.09
2022-12-03T03:07:30.103Z,1009.08
2022-12-03T03:10:03.002Z,1009.09
2022-12-03T03:12:39.157Z,1009.09
2022-12-03T03:15:08.894Z,1009.08
2022-12-03T03:17:41.951Z,1009.08
2022-12-03T03:20:14.898Z,1009.07
2022-12-03T03:22:47.898Z,1009.08
2022-12-03T03:25:21.027Z,1009.08
2022-12-03T03:27:54.021Z,1009.07
2022-12-03T03:30:26.959Z,1009.07
2022-12-03T03:33:00.231Z,1009.07
2022-12-03T03:35:33.958Z,1009.07
2022-12-03T03:38:07.036Z,1009.06
2022-12-03T03:40:39.752Z,1009.07
2022-12-03T03:43:12.924Z,1009.05
2022-12-03T03:45:46.132Z,1009.05
2022-12-03T03:48:19.039Z,1009.03
2022-12-03T03:50:52.056Z,1009.02
2022-12-03T03:53:25.038Z,1009.02
2022-12-03T03:55:58.026Z,1009.02
2022-12-03T03:58:31.078Z,1009.01
2022-12-03T04:01:04.086Z,1009.01
2022-12-03T04:03:37.025Z,1009.01
2022-12-03T04:06:09.929Z,1008.99
2022-12-03T04:08:43.127Z,1008.98
2022-12-03T04:11:15.949Z,1008.98
2022-12-03T04:13:48.991Z,1008.97
2022-12-03T04:16:22.241Z,1008.96
2022-12-03T04:18:56.034Z,1008.94
2022-12-03T04:24:32.991Z,1008.93
2022-12-03T04:27:06.010Z,1008.91
2022-12-03T04:29:41.983Z,1008.89
2022-12-03T04:32:15.068Z,1008.88
2022-12-03T04:34:48.055Z,1008.86
2022-12-03T04:37:21.087Z,1008.85
2022-12-03T04:39:54.114Z,1008.83
2022-12-03T04:42:27.105Z,1008.83
2022-12-03T04:45:00.159Z,1008.84
2022-12-03T04:47:36.939Z,1008.83
2022-12-03T04:50:06.267Z,1008.82
2022-12-03T04:52:39.939Z,1008.82
2022-12-03T04:55:13.090Z,1008.80
2022-12-03T04:57:46.247Z,1008.80
2022-12-03T05:00:20.031Z,1008.79
2022-12-03T05:02:53.276Z,1008.78
2022-12-03T05:05:26.155Z,1008.78
2022-12-03T05:07:59.134Z,1008.79
2022-12-03T05:10:32.204Z,1008.79
2022-12-03T05:13:05.079Z,1008.77
2022-12-03T05:15:38.194Z,1008.75
2022-12-03T05:18:25.069Z,1008.74
2022-12-03T05:20:58.195Z,1008.72
2022-12-03T05:23:31.108Z,1008.72
2022-12-03T05:26:10.021Z,1008.72
2022-12-03T05:28:43.152Z,1008.71
2022-12-03T05:31:16.171Z,1008.71
2022-12-03T05:33:49.233Z,1008.70
2022-12-03T05:36:21.928Z,1008.70
2022-12-03T05:38:55.128Z,1008.69
2022-12-03T05:41:28.147Z,1008.70
2022-12-03T05:44:00.908Z,1008.70
2022-12-03T05:46:34.373Z,1008.70
2022-12-03T05:49:08.014Z,1008.72
2022-12-03T05:51:40.875Z,1008.72
2022-12-03T05:54:13.908Z,1008.70
2022-12-03T05:56:46.940Z,1008.70
2022-12-03T05:59:20.059Z,1008.69
2022-12-03T06:01:52.961Z,1008.67
2022-12-03T06:04:26.081Z,1008.64
2022-12-03T06:06:58.976Z,1008.63
2022-12-03T06:09:32.053Z,1008.63
2022-12-03T06:12:05.237Z,1008.63
2022-12-03T06:14:38.225Z,1008.63
2022-12-03T06:17:10.893Z,1008.63
2022-12-03T06:19:43.997Z,1008.63
2022-12-03T06:22:17.104Z,1008.63
2022-12-03T06:24:50.117Z,1008.60
2022-12-03T06:27:23.163Z,1008.57
2022-12-03T06:29:56.317Z,1008.55
2022-12-03T06:32:29.294Z,1008.54
2022-12-03T06:35:02.287Z,1008.52
2022-12-03T06:37:35.279Z,1008.51
2022-12-03T06:40:08.201Z,1008.49
2022-12-03T06:42:41.305Z,1008.47
2022-12-03T06:45:14.229Z,1008.46
2022-12-03T06:47:46.991Z,1008.46
2022-12-03T06:50:20.080Z,1008.46
2022-12-03T06:52:52.946Z,1008.44
2022-12-03T06:55:26.090Z,1008.44
2022-12-03T06:57:59.004Z,1008.43
2022-12-03T07:00:31.949Z,1008.42
2022-12-03T07:03:05.252Z,1008.43
2022-12-03T07:05:40.107Z,1008.43
2022-12-03T07:08:13.359Z,1008.43
2022-12-03T07:10:46.364Z,1008.48
2022-12-03T07:13:23.154Z,1008.50
2022-12-03T07:15:56.297Z,1008.53
2022-12-03T07:18:29.380Z,1008.55
2022-12-03T07:21:02.323Z,1008.58
2022-12-03T07:23:35.372Z,1008.61
2022-12-03T07:26:08.310Z,1008.66
2022-12-03T07:28:41.388Z,1008.71
2022-12-03T07:31:14.316Z,1008.74
2022-12-03T07:33:47.367Z,1008.77
2022-12-03T07:36:20.349Z,1008.81
2022-12-03T07:38:53.396Z,1008.84
2022-12-03T07:41:32.142Z,1008.86
2022-12-03T07:44:10.668Z,1008.85
2022-12-03T07:46:38.387Z,1008.83
2022-12-03T07:49:11.046Z,1008.81
2022-12-03T07:51:44.093Z,1008.79
2022-12-03T07:54:17.348Z,1008.76
2022-12-03T07:56:50.158Z,1008.75
2022-12-03T07:59:23.384Z,1008.74
2022-12-03T08:01:56.170Z,1008.74
2022-12-03T08:04:29.261Z,1008.73
2022-12-03T08:07:02.427Z,1008.72
2022-12-03T08:12:25.133Z,1008.72
2022-12-03T08:14:58.397Z,1008.72
2022-12-03T08:17:31.453Z,1008.73
2022-12-03T08:20:04.442Z,1008.75
2022-12-03T08:22:37.380Z,1008.77
2022-12-03T08:25:10.384Z,1008.80
2022-12-03T08:27:43.389Z,1008.81
2022-12-03T08:30:16.401Z,1008.80
2022-12-03T08:32:49.458Z,1008.79
2022-12-03T08:35:25.318Z,1008.77
2022-12-03T08:37:58.470Z,1008.77
2022-12-03T08:40:31.369Z,1008.76
2022-12-03T08:43:04.250Z,1008.74
2022-12-03T08:45:37.394Z,1008.72
2022-12-03T08:48:10.460Z,1008.70
2022-12-03T08:50:43.168Z,1008.70
2022-12-03T08:53:16.171Z,1008.71
2022-12-03T08:55:49.467Z,1008.72
2022-12-03T08:58:22.534Z,1008.72
2022-12-03T09:00:55.531Z,1008.75
2022-12-03T09:03:28.488Z,1008.77
2022-12-03T09:06:01.693Z,1008.78
2022-12-03T09:08:35.581Z,1008.78
2022-12-03T09:11:08.621Z,1008.78
2022-12-03T09:13:42.607Z,1008.77
2022-12-03T09:16:16.494Z,1008.76
2022-12-03T09:18:49.583Z,1008.74
2022-12-03T09:21:22.394Z,1008.71
2022-12-03T09:23:55.373Z,1008.70
2022-12-03T09:26:28.327Z,1008.66
2022-12-03T09:29:01.478Z,1008.62
2022-12-03T09:31:34.485Z,1008.60
2022-12-03T09:34:07.406Z,1008.59
2022-12-03T09:36:40.549Z,1008.59
2022-12-03T09:39:13.555Z,1008.57
2022-12-03T09:41:46.210Z,1008.55
2022-12-03T09:44:19.512Z,1008.55
2022-12-03T09:46:52.564Z,1008.55
2022-12-03T09:49:25.483Z,1008.53
2022-12-03T09:51:58.581Z,1008.52
2022-12-03T09:54:31.505Z,1008.53
2022-12-03T09:57:04.514Z,1008.53
2022-12-03T09:59:37.448Z,1008.53
2022-12-03T10:02:10.520Z,1008.52
2022-12-03T10:04:43.709Z,1008.50
2022-12-03T10:07:16.244Z,1008.49
2022-12-03T10:09:49.663Z,1008.47
2022-12-03T10:12:22.603Z,1008.45
2022-12-03T10:14:55.646Z,1008.45
2022-12-03T10:17:28.436Z,1008.43
2022-12-03T10:20:01.445Z,1008.40
2022-12-03T10:22:34.280Z,1008.37
2022-12-03T10:25:07.304Z,1008.35
2022-12-03T10:27:40.667Z,1008.33
2022-12-03T10:30:13.587Z,1008.31
2022-12-03T10:32:46.673Z,1008.28
2022-12-03T10:35:19.655Z,1008.24
2022-12-03T10:37:52.389Z,1008.19
2022-12-03T10:40:25.557Z,1008.15
2022-12-03T10:42:58.364Z,1008.11
2022-12-03T10:45:31.393Z,1008.08
2022-12-03T10:48:04.565Z,1008.06
2022-12-03T10:50:37.324Z,1008.03
2022-12-03T10:53:10.601Z,1007.99
2022-12-03T10:55:43.563Z,1007.95
2022-12-03T10:58:16.657Z,1007.92
2022-12-03T11:00:49.709Z,1007.89
2022-12-03T11:03:22.826Z,1007.87
2022-12-03T11:05:55.712Z,1007.85
2022-12-03T11:08:28.614Z,1007.83
2022-12-03T11:11:01.563Z,1007.81
2022-12-03T11:13:34.673Z,1007.78
2022-12-03T11:16:07.821Z,1007.75
2022-12-03T11:18:40.716Z,1007.72
2022-12-03T11:21:13.454Z,1007.67
2022-12-03T11:23:46.776Z,1007.61
2022-12-03T11:26:20.030Z,1007.55
2022-12-03T11:28:52.669Z,1007.52
2022-12-03T11:31:25.524Z,1007.48
2022-12-03T11:33:58.382Z,1007.45
2022-12-03T11:36:48.030Z,1007.44
2022-12-03T11:39:04.461Z,1007.44
2022-12-03T11:41:37.806Z,1007.42
2022-12-03T11:44:10.427Z,1007.41
2022-12-03T11:46:43.629Z,1007.40
2022-12-03T11:49:16.417Z,1007.39
2022-12-03T11:51:49.780Z,1007.39
2022-12-03T11:54:22.770Z,1007.38
2022-12-03T11:56:55.725Z,1007.36
2022-12-03T11:59:28.690Z,1007.35
2022-12-03T12:02:01.441Z,1007.33
2022-12-03T12:04:34.840Z,1007.29
2022-12-03T12:07:07.710Z,1007.27
2022-12-03T12:09:40.763Z,1007.24
2022-12-03T12:12:13.685Z,1007.20
2022-12-03T12:14:46.805Z,1007.16
2022-12-03T12:17:19.627Z,1007.12
2022-12-03T12:19:54.512Z,1007.11
2022-12-03T12:22:25.612Z,1007.10
2022-12-03T12:24:58.575Z,1007.10
2022-12-03T12:27:31.619Z,1007.09
2022-12-03T12:30:04.662Z,1007.09
2022-12-03T12:32:37.814Z,1007.08
2022-12-03T12:35:11.055Z,1007.04
2022-12-03T12:37:47.577Z,1007.01
2022-12-03T12:40:17.792Z,1006.99
2022-12-03T12:42:54.765Z,1006.95
2022-12-03T12:45:27.740Z,1006.90
2022-12-03T12:48:00.831Z,1006.87
2022-12-03T12:50:33.728Z,1006.87
2022-12-03T12:53:06.934Z,1006.84
2022-12-03T12:55:39.837Z,1006.83
2022-12-03T12:58:12.565Z,1006.81
2022-12-03T13:00:45.606Z,1006.80
2022-12-03T13:03:22.526Z,1006.78
2022-12-03T13:05:55.525Z,1006.77
2022-12-03T13:08:28.704Z,1006.76
2022-12-03T13:11:01.723Z,1006.75
2022-12-03T13:13:44.020Z,1006.74
2022-12-03T13:16:13.625Z,1006.74
2022-12-03T13:18:46.792Z,1006.73
2022-12-03T13:21:19.857Z,1006.73
2022-12-03T13:23:52.743Z,1006.74
2022-12-03T13:26:36.459Z,1006.72
2022-12-03T13:28:59.011Z,1006.70
2022-12-03T13:31:32.797Z,1006.69
2022-12-03T13:34:05.935Z,1006.69
2022-12-03T13:36:38.841Z,1006.68
2022-12-03T13:39:11.868Z,1006.67
2022-12-03T13:41:44.830Z,1006.66
2022-12-03T13:44:31.771Z,1006.63
2022-12-03T13:47:04.893Z,1006.61
2022-12-03T13:49:37.938Z,1006.59
2022-12-03T13:52:10.596Z,1006.59
2022-12-03T13:54:43.918Z,1006.57
2022-12-03T13:57:16.579Z,1006.56
2022-12-03T13:59:49.880Z,1006.56
2022-12-03T14:02:22.991Z,1006.54
2022-12-03T14:05:00.208Z,1006.54
2022-12-03T14:07:29.006Z,1006.54
2022-12-03T14:10:02.032Z,1006.55
2022-12-03T14:12:34.999Z,1006.54
2022-12-03T14:15:07.918Z,1006.52
2022-12-03T14:17:40.927Z,1006.51
2022-12-03T14:20:13.896Z,1006.50
2022-12-03T14:22:46.791Z,1006.49
2022-12-03T14:25:19.927Z,1006.47
2022-12-03T14:27:53.043Z,1006.45
2022-12-03T14:30:26.071Z,1006.45
2022-12-03T14:32:58.914Z,1006.44
2022-12-03T14:35:31.961Z,1006.43
2022-12-03T14:38:05.055Z,1006.43
2022-12-03T14:40:37.813Z,1006.43
2022-12-03T14:43:10.653Z,1006.44
2022-12-03T14:45:44.194Z,1006.44
2022-12-03T14:48:16.964Z,1006.46
2022-12-03T14:50:50.050Z,1006.47
2022-12-03T14:53:27.577Z,1006.47
2022-12-03T14:55:59.167Z,1006.48
2022-12-03T14:58:32.968Z,1006.51
2022-12-03T15:01:06.185Z,1006.53
2022-12-03T15:03:38.975Z,1006.55
2022-12-03T15:06:11.952Z,1006.58
2022-12-03T15:08:45.005Z,1006.59
2022-12-03T15:11:32.096Z,1006.59
2022-12-03T15:14:04.699Z,1006.59
2022-12-03T15:16:38.150Z,1006.59
2022-12-03T15:19:10.700Z,1006.59
2022-12-03T15:21:43.972Z,1006.61
2022-12-03T15:24:16.991Z,1006.62
2022-12-03T15:26:50.102Z,1006.63
2022-12-03T15:29:23.140Z,1006.63
2022-12-03T15:31:55.956Z,1006.63
2022-12-03T15:34:28.911Z,1006.62
2022-12-03T15:37:02.123Z,1006.64
2022-12-03T15:39:35.087Z,1006.63
2022-12-03T15:42:07.865Z,1006.64
2022-12-03T15:44:40.935Z,1006.66
2022-12-03T15:47:14.070Z,1006.66
2022-12-03T15:49:47.180Z,1006.66
2022-12-03T15:52:20.177Z,1006.65
2022-12-03T15:54:52.955Z,1006.64
2022-12-03T15:57:25.790Z,1006.64
2022-12-03T15:59:59.153Z,1006.64
2022-12-03T16:02:32.222Z,1006.62
2022-12-03T16:05:05.176Z,1006.61
2022-12-03T16:07:38.026Z,1006.60
2022-12-03T16:10:11.050Z,1006.60
2022-12-03T16:12:44.158Z,1006.60
2022-12-03T16:15:17.656Z,1006.60
2022-12-03T16:17:50.052Z,1006.58
2022-12-03T16:20:22.931Z,1006.56
2022-12-03T16:22:55.827Z,1006.57
2022-12-03T16:25:29.183Z,1006.56
2022-12-03T16:28:02.192Z,1006.54
2022-12-03T16:30:34.907Z,1006.51
2022-12-03T16:33:08.056Z,1006.50
2022-12-03T16:35:41.223Z,1006.50
2022-12-03T16:38:13.867Z,1006.51
2022-12-03T16:40:46.837Z,1006.51
2022-12-03T16:43:20.254Z,1006.52
2022-12-03T16:45:53.278Z,1006.52
2022-12-03T16:48:26.126Z,1006.52
2022-12-03T16:50:59.125Z,1006.51
2022-12-03T16:53:32.280Z,1006.51
2022-12-03T16:56:05.277Z,1006.51
2022-12-03T16:58:38.192Z,1006.51
2022-12-03T17:01:11.185Z,1006.49
2022-12-03T17:03:44.146Z,1006.48
2022-12-03T17:06:17.159Z,1006.47
2022-12-03T17:08:50.249Z,1006.45
2022-12-03T17:11:23.280Z,1006.42
2022-12-03T17:13:56.069Z,1006.41
2022-12-03T17:16:29.365Z,1006.41
2022-12-03T17:19:02.100Z,1006.38
2022-12-03T17:21:35.323Z,1006.36
2022-12-03T17:24:08.006Z,1006.33
2022-12-03T17:26:41.310Z,1006.31
2022-12-03T17:29:14.159Z,1006.31
2022-12-03T17:31:47.194Z,1006.30
2022-12-03T17:34:20.260Z,1006.30
2022-12-03T17:36:53.305Z,1006.29
2022-12-03T17:39:26.328Z,1006.28
2022-12-03T17:41:59.009Z,1006.29
2022-12-03T17:44:32.255Z,1006.27
2022-12-03T17:47:05.042Z,1006.25
2022-12-03T17:49:39.199Z,1006.27
2022-12-03T17:52:11.993Z,1006.27
2022-12-03T17:55:09.054Z,1006.27
2022-12-03T17:57:17.975Z,1006.26
2022-12-03T17:59:51.300Z,1006.24
2022-12-03T18:02:24.068Z,1006.22
2022-12-03T18:04:57.147Z,1006.23
2022-12-03T18:07:44.219Z,1006.22
2022-12-03T18:10:16.978Z,1006.21
2022-12-03T18:12:49.996Z,1006.19
2022-12-03T18:15:22.992Z,1006.16
2022-12-03T18:17:56.253Z,1006.16
2022-12-03T18:20:29.299Z,1006.15
2022-12-03T18:23:02.015Z,1006.14
2022-12-03T18:25:35.407Z,1006.13
2022-12-03T18:28:08.177Z,1006.11
2022-12-03T18:30:41.004Z,1006.09
2022-12-03T18:33:14.025Z,1006.06
2022-12-03T18:35:47.239Z,1006.06
2022-12-03T18:38:20.021Z,1006.07
2022-12-03T18:40:53.030Z,1006.08
2022-12-03T18:43:26.062Z,1006.08
2022-12-03T18:45:59.011Z,1006.07
2022-12-03T18:48:32.054Z,1006.05
2022-12-03T18:51:05.076Z,1006.03
2022-12-03T18:53:38.038Z,1006.03
2022-12-03T18:56:11.339Z,1006.02
2022-12-03T18:58:44.038Z,1006.01
2022-12-03T19:01:17.204Z,1005.98
2022-12-03T19:03:50.123Z,1005.98
2022-12-03T19:06:23.238Z,1005.98
2022-12-03T19:08:56.068Z,1005.97
2022-12-03T19:11:29.083Z,1005.96
2022-12-03T19:14:02.090Z,1005.96
2022-12-03T19:16:35.249Z,1005.94
2022-12-03T19:19:08.293Z,1005.94
2022-12-03T19:21:41.099Z,1005.93
2022-12-03T19:24:24.156Z,1005.93
2022-12-03T19:26:47.366Z,1005.91
2022-12-03T19:29:20.266Z,1005.91
2022-12-03T19:31:53.242Z,1005.93
2022-12-03T19:34:26.187Z,1005.93
2022-12-03T19:36:59.194Z,1005.92
2022-12-03T19:39:32.469Z,1005.91
2022-12-03T19:42:05.296Z,1005.91
2022-12-03T19:44:38.199Z,1005.90
2022-12-03T19:47:11.366Z,1005.90
2022-12-03T19:49:44.403Z,1005.90
2022-12-03T19:52:17.404Z,1005.90
2022-12-03T19:54:50.420Z,1005.91
2022-12-03T19:57:23.760Z,1005.92
2022-12-03T19:59:56.839Z,1005.91
2022-12-03T20:05:19.146Z,1005.90
2022-12-03T20:07:52.613Z,1005.89
2022-12-03T20:10:31.186Z,1005.88
2022-12-03T20:13:04.185Z,1005.88
2022-12-03T20:15:37.217Z,1005.89
2022-12-03T20:18:10.180Z,1005.88
2022-12-03T20:20:43.235Z,1005.88
2022-12-03T20:23:16.590Z,1005.87
2022-12-03T20:25:49.230Z,1005.87
2022-12-03T20:28:22.446Z,1005.86
2022-12-03T20:30:55.343Z,1005.86
2022-12-03T20:33:28.388Z,1005.87
2022-12-03T20:36:01.347Z,1005.86
2022-12-03T20:38:34.408Z,1005.84
2022-12-03T20:41:07.385Z,1005.83
2022-12-03T20:43:54.150Z,1005.82
2022-12-03T20:46:27.564Z,1005.80
2022-12-03T20:49:00.528Z,1005.77
2022-12-03T20:51:33.287Z,1005.76
2022-12-03T20:54:06.419Z,1005.75
2022-12-03T20:56:39.422Z,1005.73
2022-12-03T20:59:12.253Z,1005.71
2022-12-03T21:01:45.493Z,1005.68
2022-12-03T21:04:18.528Z,1005.67
2022-12-03T21:06:51.435Z,1005.67
2022-12-03T21:09:24.541Z,1005.67
2022-12-03T21:11:57.351Z,1005.66
2022-12-03T21:14:30.515Z,1005.65
2022-12-03T21:17:08.931Z,1005.65
2022-12-03T21:19:36.608Z,1005.65
2022-12-03T21:22:09.240Z,1005.66
2022-12-03T21:24:42.337Z,1005.65
2022-12-03T21:27:21.159Z,1005.64
2022-12-03T21:29:48.274Z,1005.64
2022-12-03T21:32:21.535Z,1005.63
2022-12-03T21:34:54.410Z,1005.62
2022-12-03T21:37:30.460Z,1005.62
2022-12-03T21:40:03.488Z,1005.60
2022-12-03T21:42:37.363Z,1005.58
2022-12-03T21:45:09.287Z,1005.56
2022-12-03T21:47:42.539Z,1005.55
2022-12-03T21:50:15.450Z,1005.53
2022-12-03T21:52:48.397Z,1005.52
2022-12-03T21:55:21.461Z,1005.53
2022-12-03T21:57:54.464Z,1005.53
2022-12-03T22:00:27.330Z,1005.54
2022-12-03T22:03:00.599Z,1005.55
2022-12-03T22:05:33.341Z,1005.55
2022-12-03T22:08:06.579Z,1005.53
2022-12-03T22:10:39.493Z,1005.54
2022-12-03T22:13:12.715Z,1005.54
2022-12-03T22:15:45.575Z,1005.54
2022-12-03T22:18:18.624Z,1005.55
2022-12-03T22:20:51.546Z,1005.56
2022-12-03T22:23:24.373Z,1005.57
2022-12-03T22:25:57.757Z,1005.55
2022-12-03T22:28:30.653Z,1005.54
2022-12-03T22:31:03.577Z,1005.53
2022-12-03T22:33:36.742Z,1005.55
2022-12-03T22:36:13.297Z,1005.55
2022-12-03T22:38:42.684Z,1005.55
2022-12-03T22:41:15.721Z,1005.54
2022-12-03T22:43:48.804Z,1005.52
2022-12-03T22:46:21.763Z,1005.50
2022-12-03T22:48:54.781Z,1005.48
2022-12-03T22:51:27.737Z,1005.47
2022-12-03T22:54:00.773Z,1005.47
2022-12-03T22:56:33.756Z,1005.47
2022-12-03T22:59:06.431Z,1005.46
2022-12-03T23:01:45.525Z,1005.47
2022-12-03T23:04:18.523Z,1005.46
2022-12-03T23:06:51.597Z,1005.45
2022-12-03T23:09:24.778Z,1005.45
2022-12-03T23:11:57.819Z,1005.44
2022-12-03T23:14:30.758Z,1005.43
2022-12-03T23:17:03.726Z,1005.39
2022-12-03T23:19:36.754Z,1005.34
2022-12-03T23:22:09.713Z,1005.27
2022-12-03T23:24:42.766Z,1005.21
2022-12-03T23:27:15.556Z,1005.16
2022-12-03T23:29:48.706Z,1005.09
2022-12-03T23:32:21.815Z,1005.04
2022-12-03T23:34:54.881Z,1005.00
2022-12-03T23:37:27.822Z,1004.97
2022-12-03T23:40:00.864Z,1004.98
2022-12-03T23:42:33.837Z,1004.98
2022-12-03T23:45:06.856Z,1005.01
2022-12-03T23:47:39.828Z,1005.03
2022-12-03T23:50:12.770Z,1005.04
2022-12-03T23:52:45.790Z,1005.06
2022-12-03T23:55:18.793Z,1005.07
2022-12-03T23:57:51.888Z,1005.05
